createdAt,value
2022-09-27T00:01:43.604Z,10.20
2022-09-27T00:04:12.492Z,10.20
2022-09-27T00:06:41.231Z,10.20
2022-09-27T00:09:09.747Z,10.20
2022-09-27T00:11:39.291Z,10.10
2022-09-27T00:14:09.268Z,10.10
2022-09-27T00:16:38.184Z,10.20
2022-09-27T00:19:08.777Z,10.20
2022-09-27T00:21:37.419Z,10.20
2022-09-27T00:24:05.716Z,10.20
2022-09-27T00:26:34.316Z,10.10
2022-09-27T00:29:02.444Z,10.10
2022-09-27T00:31:32.419Z,10.10
2022-09-27T00:34:01.810Z,10.10
2022-09-27T00:36:30.701Z,10.00
2022-09-27T00:38:59.935Z,10.00
2022-09-27T00:41:29.352Z,10.00
2022-09-27T00:43:58.524Z,9.90
2022-09-27T00:46:29.361Z,10.00
2022-09-27T00:49:05.375Z,10.10
2022-09-27T00:51:35.136Z,10.20
2022-09-27T00:54:03.891Z,10.20
2022-09-27T00:56:32.342Z,10.10
2022-09-27T00:59:03.838Z,10.00
2022-09-27T01:01:32.027Z,10.00
2022-09-27T01:04:02.139Z,9.90
2022-09-27T01:06:31.807Z,9.90
2022-09-27T01:08:59.765Z,9.90
2022-09-27T01:11:37.210Z,9.90
2022-09-27T01:14:25.706Z,9.90
2022-09-27T01:16:58.776Z,10.00
2022-09-27T01:19:40.823Z,10.00
2022-09-27T01:22:13.455Z,10.00
2022-09-27T01:24:51.018Z,10.00
2022-09-27T01:27:28.676Z,10.10
2022-09-27T01:30:14.607Z,10.10
2022-09-27T01:32:50.044Z,10.10
2022-09-27T01:35:22.910Z,10.10
2022-09-27T01:37:53.584Z,10.00
2022-09-27T01:40:25.647Z,10.00
2022-09-27T01:42:58.809Z,9.90
2022-09-27T01:45:30.178Z,9.80
2022-09-27T01:48:00.808Z,9.90
2022-09-27T01:50:32.609Z,9.90
2022-09-27T01:53:02.573Z,9.90
2022-09-27T01:55:32.645Z,9.90
2022-09-27T01:58:01.975Z,9.90
2022-09-27T02:00:30.268Z,9.90
2022-09-27T02:03:01.270Z,9.80
2022-09-27T02:05:32.047Z,9.80
2022-09-27T02:08:02.670Z,9.70
2022-09-27T02:10:32.665Z,9.70
2022-09-27T02:13:07.141Z,9.60
2022-09-27T02:15:40.419Z,9.50
2022-09-27T02:18:14.823Z,9.40
2022-09-27T02:20:46.384Z,9.30
2022-09-27T02:23:19.073Z,9.30
2022-09-27T02:25:50.249Z,9.30
2022-09-27T02:28:23.979Z,9.40
2022-09-27T02:30:52.388Z,9.30
2022-09-27T02:33:23.512Z,9.30
2022-09-27T02:35:51.578Z,9.30
2022-09-27T02:38:19.976Z,9.20
2022-09-27T02:40:48.702Z,9.10
2022-09-27T02:43:18.448Z,9.00
2022-09-27T02:45:54.970Z,9.00
2022-09-27T02:48:31.268Z,9.00
2022-09-27T02:51:25.713Z,9.00
2022-09-27T02:54:10.919Z,9.00
2022-09-27T02:56:57.289Z,9.20
2022-09-27T02:59:36.840Z,9.30
2022-09-27T03:02:13.548Z,9.30
2022-09-27T03:04:48.819Z,9.30
2022-09-27T03:07:18.466Z,9.30
2022-09-27T03:09:49.281Z,9.30
2022-09-27T03:12:26.349Z,9.30
2022-09-27T03:14:56.408Z,9.20
2022-09-27T03:17:25.208Z,9.20
2022-09-27T03:19:54.956Z,9.10
2022-09-27T03:22:23.480Z,9.10
2022-09-27T03:24:51.671Z,9.10
2022-09-27T03:27:20.123Z,9.10
2022-09-27T03:29:48.349Z,9.10
2022-09-27T03:32:16.688Z,9.00
2022-09-27T03:34:45.105Z,9.00
2022-09-27T03:37:14.729Z,9.00
2022-09-27T03:39:42.987Z,9.00
2022-09-27T03:42:11.291Z,8.90
2022-09-27T03:44:39.529Z,8.90
2022-09-27T03:47:07.769Z,9.00
2022-09-27T03:49:35.928Z,8.90
2022-09-27T03:52:04.205Z,9.00
2022-09-27T03:54:34.056Z,9.00
2022-09-27T03:57:02.295Z,9.10
2022-09-27T03:59:30.476Z,9.20
2022-09-27T04:02:04.997Z,9.30
2022-09-27T04:04:33.574Z,9.30
2022-09-27T04:07:01.997Z,9.40
2022-09-27T04:09:30.478Z,9.40
2022-09-27T04:12:00.460Z,9.50
2022-09-27T04:14:29.040Z,9.50
2022-09-27T04:16:57.273Z,9.50
2022-09-27T04:19:25.680Z,9.50
2022-09-27T04:21:53.820Z,9.50
2022-09-27T04:24:22.091Z,9.50
2022-09-27T04:26:50.465Z,9.50
2022-09-27T04:29:20.353Z,9.50
2022-09-27T04:31:48.766Z,9.50
2022-09-27T04:34:17.300Z,9.50
2022-09-27T04:36:44.504Z,9.60
2022-09-27T04:39:12.817Z,9.60
2022-09-27T04:41:41.544Z,9.60
2022-09-27T04:44:10.042Z,9.60
2022-09-27T04:46:39.815Z,9.60
2022-09-27T04:49:08.081Z,9.70
2022-09-27T04:51:37.055Z,9.60
2022-09-27T04:54:05.638Z,9.60
2022-09-27T04:56:36.088Z,9.70
2022-09-27T04:59:09.808Z,9.60
2022-09-27T05:01:40.805Z,9.60
2022-09-27T05:04:10.417Z,9.60
2022-09-27T05:06:38.956Z,9.50
2022-09-27T05:09:07.163Z,9.50
2022-09-27T05:11:38.236Z,9.50
2022-09-27T05:14:06.669Z,9.50
2022-09-27T05:16:36.253Z,9.50
2022-09-27T05:19:06.213Z,9.40
2022-09-27T05:21:34.441Z,9.40
2022-09-27T05:24:03.144Z,9.40
2022-09-27T05:26:31.385Z,9.50
2022-09-27T05:28:59.625Z,9.50
2022-09-27T05:31:28.056Z,9.40
2022-09-27T05:33:56.448Z,9.40
2022-09-27T05:36:26.195Z,9.40
2022-09-27T05:38:54.776Z,9.40
2022-09-27T05:41:23.421Z,9.40
2022-09-27T05:43:52.555Z,9.40
2022-09-27T05:46:20.863Z,9.40
2022-09-27T05:48:49.195Z,9.40
2022-09-27T05:51:19.391Z,9.40
2022-09-27T05:53:49.169Z,9.50
2022-09-27T05:56:17.612Z,9.50
2022-09-27T05:58:46.131Z,9.50
2022-09-27T06:01:14.507Z,9.50
2022-09-27T06:03:43.103Z,9.50
2022-09-27T06:06:12.321Z,9.60
2022-09-27T06:08:40.840Z,9.60
2022-09-27T06:11:12.943Z,9.60
2022-09-27T06:13:41.787Z,9.60
2022-09-27T06:16:12.803Z,9.60
2022-09-27T06:18:41.079Z,9.60
2022-09-27T06:21:09.281Z,9.50
2022-09-27T06:23:37.691Z,9.50
2022-09-27T06:26:07.995Z,9.40
2022-09-27T06:28:37.693Z,9.50
2022-09-27T06:31:08.425Z,9.50
2022-09-27T06:33:37.188Z,9.50
2022-09-27T06:36:07.307Z,9.60
2022-09-27T06:38:36.321Z,9.50
2022-09-27T06:41:06.637Z,9.50
2022-09-27T06:43:35.411Z,9.60
2022-09-27T06:46:06.144Z,9.60
2022-09-27T06:48:36.240Z,9.60
2022-09-27T06:51:04.823Z,9.60
2022-09-27T06:53:33.608Z,9.60
2022-09-27T06:56:02.894Z,9.70
2022-09-27T06:58:49.020Z,9.70
2022-09-27T07:01:19.066Z,9.70
2022-09-27T07:03:51.450Z,9.70
2022-09-27T07:06:22.992Z,9.70
2022-09-27T07:08:53.273Z,9.80
2022-09-27T07:11:23.464Z,9.80
2022-09-27T07:13:52.123Z,9.80
2022-09-27T07:16:22.993Z,9.90
2022-09-27T07:18:51.760Z,10.00
2022-09-27T07:21:19.999Z,10.00
2022-09-27T07:23:48.621Z,10.10
2022-09-27T07:26:16.803Z,10.10
2022-09-27T07:28:46.093Z,10.20
2022-09-27T07:31:14.868Z,10.20
2022-09-27T07:33:44.676Z,10.40
2022-09-27T07:36:14.508Z,10.50
2022-09-27T07:38:42.922Z,10.60
2022-09-27T07:41:13.300Z,10.80
2022-09-27T07:43:41.542Z,10.90
2022-09-27T07:46:11.224Z,11.00
2022-09-27T07:48:39.700Z,11.10
2022-09-27T07:51:11.244Z,11.30
2022-09-27T07:53:40.787Z,11.30
2022-09-27T07:56:09.733Z,11.50
2022-09-27T07:58:37.962Z,11.60
2022-09-27T08:01:06.235Z,11.80
2022-09-27T08:03:35.012Z,12.10
2022-09-27T08:06:05.296Z,12.30
2022-09-27T08:08:34.915Z,12.50
2022-09-27T08:11:03.279Z,12.90
2022-09-27T08:13:31.636Z,13.10
2022-09-27T08:16:03.804Z,13.20
2022-09-27T08:18:32.171Z,13.40
2022-09-27T08:21:01.550Z,13.20
2022-09-27T08:23:30.185Z,13.00
2022-09-27T08:25:59.825Z,13.00
2022-09-27T08:28:28.413Z,13.00
2022-09-27T08:30:59.318Z,13.20
2022-09-27T08:33:32.333Z,13.40
2022-09-27T08:36:01.918Z,13.20
2022-09-27T08:38:30.100Z,12.90
2022-09-27T08:41:07.708Z,12.60
2022-09-27T08:43:40.760Z,12.30
2022-09-27T08:46:17.340Z,12.10
2022-09-27T08:48:48.210Z,11.90
2022-09-27T08:51:17.724Z,11.80
2022-09-27T08:53:53.554Z,11.80
2022-09-27T08:56:24.248Z,11.90
2022-09-27T08:58:58.011Z,12.10
2022-09-27T09:01:29.191Z,12.30
2022-09-27T09:04:01.715Z,12.20
2022-09-27T09:06:38.192Z,12.10
2022-09-27T09:09:19.906Z,12.10
2022-09-27T09:12:19.532Z,12.30
2022-09-27T09:15:03.700Z,12.60
2022-09-27T09:17:46.699Z,13.20
2022-09-27T09:20:32.178Z,14.10
2022-09-27T09:23:22.786Z,14.60
2022-09-27T09:25:58.854Z,14.60
2022-09-27T09:28:41.356Z,14.60
2022-09-27T09:31:16.577Z,14.50
2022-09-27T09:33:50.556Z,14.30
2022-09-27T09:36:26.391Z,13.90
2022-09-27T09:38:57.803Z,13.70
2022-09-27T09:41:31.082Z,13.60
2022-09-27T09:44:07.238Z,13.50
2022-09-27T09:46:42.295Z,13.50
2022-09-27T09:49:19.701Z,13.50
2022-09-27T09:51:52.881Z,13.40
2022-09-27T09:54:26.248Z,13.40
2022-09-27T09:57:04.485Z,13.20
2022-09-27T09:59:43.022Z,13.20
2022-09-27T10:02:26.717Z,13.10
2022-09-27T10:04:55.312Z,13.00
2022-09-27T10:07:25.016Z,13.10
2022-09-27T10:09:55.919Z,13.10
2022-09-27T10:12:24.228Z,13.20
2022-09-27T10:14:56.785Z,13.20
2022-09-27T10:17:29.102Z,13.40
2022-09-27T10:19:59.865Z,13.50
2022-09-27T10:22:32.906Z,13.40
2022-09-27T10:25:03.477Z,13.50
2022-09-27T10:27:41.377Z,13.50
2022-09-27T10:30:29.206Z,13.60
2022-09-27T10:33:01.341Z,13.90
2022-09-27T10:35:38.017Z,14.40
2022-09-27T10:38:22.793Z,15.10
2022-09-27T10:40:55.413Z,15.70
2022-09-27T10:43:32.816Z,16.20
2022-09-27T10:46:12.051Z,15.90
2022-09-27T10:48:42.129Z,15.20
2022-09-27T10:51:25.782Z,14.60
2022-09-27T10:53:58.727Z,14.50
2022-09-27T10:56:30.994Z,14.50
2022-09-27T10:59:00.511Z,14.60
2022-09-27T11:01:42.140Z,14.60
2022-09-27T11:04:21.617Z,14.60
2022-09-27T11:06:50.641Z,14.30
2022-09-27T11:09:24.219Z,14.00
2022-09-27T11:11:52.885Z,13.80
2022-09-27T11:14:23.323Z,13.60
2022-09-27T11:17:27.320Z,13.40
2022-09-27T11:20:09.563Z,13.10
2022-09-27T11:23:16.032Z,12.80
2022-09-27T11:25:57.557Z,11.70
2022-09-27T11:28:42.057Z,10.70
2022-09-27T11:31:17.634Z,10.10
2022-09-27T11:33:56.939Z,9.70
2022-09-27T11:36:29.575Z,9.50
2022-09-27T11:39:03.516Z,9.30
2022-09-27T11:41:40.603Z,9.20
2022-09-27T11:44:29.700Z,9.20
2022-09-27T11:47:02.832Z,9.40
2022-09-27T11:50:13.773Z,9.60
2022-09-27T11:52:47.372Z,10.10
2022-09-27T11:55:20.600Z,10.80
2022-09-27T11:57:53.688Z,11.40
2022-09-27T12:00:24.397Z,11.60
2022-09-27T12:03:13.471Z,11.60
2022-09-27T12:05:57.721Z,11.50
2022-09-27T12:08:34.252Z,11.40
2022-09-27T12:11:04.492Z,11.30
2022-09-27T12:13:35.618Z,11.00
2022-09-27T12:16:03.992Z,10.70
2022-09-27T12:18:33.998Z,10.40
2022-09-27T12:21:04.379Z,10.10
2022-09-27T12:23:36.759Z,9.80
2022-09-27T12:26:07.400Z,9.60
2022-09-27T12:28:37.403Z,9.40
2022-09-27T12:31:28.071Z,9.30
2022-09-27T12:34:02.041Z,9.40
2022-09-27T12:36:38.376Z,9.40
2022-09-27T12:39:12.292Z,9.50
2022-09-27T12:41:42.551Z,9.60
2022-09-27T12:44:11.887Z,9.60
2022-09-27T12:46:45.969Z,9.50
2022-09-27T12:49:16.976Z,9.50
2022-09-27T12:51:48.209Z,9.50
2022-09-27T12:54:33.126Z,9.50
2022-09-27T12:57:04.423Z,9.50
2022-09-27T12:59:40.729Z,9.40
2022-09-27T13:02:23.226Z,9.30
2022-09-27T13:05:10.125Z,9.30
2022-09-27T13:07:52.320Z,9.30
2022-09-27T13:10:32.623Z,9.30
2022-09-27T13:13:01.660Z,9.40
2022-09-27T13:15:31.343Z,9.50
2022-09-27T13:17:59.961Z,9.60
2022-09-27T13:20:39.493Z,9.70
2022-09-27T13:23:31.659Z,10.00
2022-09-27T13:26:03.050Z,10.60
2022-09-27T13:28:37.128Z,11.20
2022-09-27T13:31:05.713Z,11.60
2022-09-27T13:33:46.238Z,11.70
2022-09-27T13:36:23.019Z,11.60
2022-09-27T13:39:01.461Z,11.20
2022-09-27T13:41:30.255Z,11.00
2022-09-27T13:44:05.310Z,10.80
2022-09-27T13:46:34.790Z,10.60
2022-09-27T13:49:05.120Z,10.60
2022-09-27T13:51:37.080Z,10.50
2022-09-27T13:54:10.619Z,10.50
2022-09-27T13:56:50.500Z,10.60
2022-09-27T13:59:20.432Z,10.80
2022-09-27T14:01:49.359Z,11.00
2022-09-27T14:04:19.862Z,11.30
2022-09-27T14:06:50.221Z,11.40
2022-09-27T14:09:22.070Z,11.40
2022-09-27T14:11:53.585Z,11.50
2022-09-27T14:14:24.562Z,11.60
2022-09-27T14:16:54.465Z,11.70
2022-09-27T14:19:24.060Z,11.60
2022-09-27T14:21:52.218Z,11.60
2022-09-27T14:24:26.667Z,11.50
2022-09-27T14:27:05.747Z,11.40
2022-09-27T14:29:34.577Z,11.20
2022-09-27T14:32:05.910Z,10.90
2022-09-27T14:34:33.893Z,10.80
2022-09-27T14:37:18.940Z,10.60
2022-09-27T14:39:54.349Z,10.60
2022-09-27T14:42:23.131Z,10.50
2022-09-27T14:44:51.462Z,10.50
2022-09-27T14:47:21.315Z,10.70
2022-09-27T14:49:50.043Z,10.80
2022-09-27T14:52:21.466Z,10.90
2022-09-27T14:54:58.356Z,10.80
2022-09-27T14:57:27.605Z,10.70
2022-09-27T14:59:57.617Z,10.60
2022-09-27T15:02:26.820Z,10.50
2022-09-27T15:04:55.371Z,10.50
2022-09-27T15:07:23.475Z,10.50
2022-09-27T15:09:52.387Z,10.60
2022-09-27T15:12:26.882Z,10.60
2022-09-27T15:14:56.267Z,10.60
2022-09-27T15:17:25.325Z,10.40
2022-09-27T15:20:00.461Z,10.30
2022-09-27T15:22:34.379Z,10.20
2022-09-27T15:25:19.343Z,10.10
2022-09-27T15:27:50.891Z,10.30
2022-09-27T15:30:19.858Z,10.40
2022-09-27T15:32:50.659Z,10.40
2022-09-27T15:35:21.617Z,10.20
2022-09-27T15:37:50.894Z,10.00
2022-09-27T15:40:56.106Z,9.80
2022-09-27T15:43:30.135Z,9.70
2022-09-27T15:46:01.066Z,9.50
2022-09-27T15:48:29.723Z,9.40
2022-09-27T15:50:57.766Z,9.30
2022-09-27T15:53:46.084Z,9.10
2022-09-27T15:56:15.963Z,9.00
2022-09-27T15:58:46.041Z,8.90
2022-09-27T16:01:18.430Z,8.80
2022-09-27T16:03:46.700Z,8.60
2022-09-27T16:06:14.891Z,8.60
2022-09-27T16:08:43.879Z,8.50
2022-09-27T16:11:14.691Z,8.50
2022-09-27T16:13:42.877Z,8.50
2022-09-27T16:16:19.866Z,8.60
2022-09-27T16:18:48.418Z,8.70
2022-09-27T16:21:16.606Z,8.70
2022-09-27T16:23:44.643Z,8.70
2022-09-27T16:26:12.629Z,8.80
2022-09-27T16:28:40.589Z,8.70
2022-09-27T16:31:10.244Z,8.70
2022-09-27T16:33:39.568Z,8.60
2022-09-27T16:36:14.185Z,8.50
2022-09-27T16:38:42.381Z,8.30
2022-09-27T16:41:10.572Z,8.20
2022-09-27T16:43:38.570Z,8.10
2022-09-27T16:46:09.363Z,8.00
2022-09-27T16:48:37.560Z,7.90
2022-09-27T16:51:28.685Z,7.80
2022-09-27T16:53:56.900Z,7.70
2022-09-27T16:56:24.868Z,7.60
2022-09-27T16:58:53.639Z,7.60
2022-09-27T17:01:21.697Z,7.60
2022-09-27T17:03:52.623Z,7.50
2022-09-27T17:06:25.527Z,7.50
2022-09-27T17:08:53.527Z,7.40
2022-09-27T17:11:21.825Z,7.40
2022-09-27T17:13:50.407Z,7.30
2022-09-27T17:16:18.543Z,7.30
2022-09-27T17:18:46.571Z,7.20
2022-09-27T17:21:15.043Z,7.20
2022-09-27T17:23:44.853Z,7.20
2022-09-27T17:26:16.494Z,7.10
2022-09-27T17:28:44.608Z,7.00
2022-09-27T17:31:15.582Z,6.80
2022-09-27T17:33:45.218Z,6.70
2022-09-27T17:36:15.134Z,6.60
2022-09-27T17:38:45.031Z,6.50
2022-09-27T17:41:14.264Z,6.40
2022-09-27T17:43:50.349Z,6.40
2022-09-27T17:46:19.731Z,6.40
2022-09-27T17:49:05.361Z,6.40
2022-09-27T17:51:34.663Z,6.30
2022-09-27T17:54:08.114Z,6.30
2022-09-27T17:56:37.919Z,6.30
2022-09-27T17:59:06.592Z,6.30
2022-09-27T18:01:38.021Z,6.40
2022-09-27T18:10:00.798Z,6.40
2022-09-27T18:12:32.058Z,6.40
2022-09-27T18:15:00.521Z,6.50
2022-09-27T18:17:38.023Z,6.50
2022-09-27T18:20:09.153Z,6.50
2022-09-27T18:22:38.943Z,6.50
2022-09-27T18:25:12.378Z,6.40
2022-09-27T18:27:41.065Z,6.40
2022-09-27T18:30:10.118Z,6.40
2022-09-27T18:32:39.283Z,6.40
2022-09-27T18:35:10.858Z,6.40
2022-09-27T18:37:48.084Z,6.40
2022-09-27T18:40:28.072Z,6.40
2022-09-27T18:43:10.120Z,6.40
2022-09-27T18:45:46.985Z,6.40
2022-09-27T18:48:15.546Z,6.30
2022-09-27T18:50:45.194Z,6.30
2022-09-27T18:53:13.312Z,6.30
2022-09-27T18:55:43.324Z,6.30
2022-09-27T18:58:16.331Z,6.30
2022-09-27T19:00:47.089Z,6.20
2022-09-27T19:03:16.599Z,6.20
2022-09-27T19:05:44.861Z,6.20
2022-09-27T19:08:13.400Z,6.10
2022-09-27T19:10:42.841Z,6.10
2022-09-27T19:13:11.330Z,6.00
2022-09-27T19:15:40.034Z,6.00
2022-09-27T19:18:08.047Z,6.00
2022-09-27T19:20:38.845Z,6.00
2022-09-27T19:23:09.175Z,6.10
2022-09-27T19:25:39.862Z,6.10
2022-09-27T19:28:09.473Z,6.00
2022-09-27T19:30:54.408Z,6.10
2022-09-27T19:33:22.450Z,6.20
2022-09-27T19:35:50.814Z,6.00
2022-09-27T19:38:19.273Z,6.00
2022-09-27T19:40:54.002Z,6.00
2022-09-27T19:43:23.911Z,6.00
2022-09-27T19:45:54.782Z,5.90
2022-09-27T19:48:22.808Z,5.80
2022-09-27T19:50:58.011Z,5.70
2022-09-27T19:53:31.190Z,5.60
2022-09-27T19:56:00.043Z,5.50
2022-09-27T19:58:30.681Z,5.40
2022-09-27T20:00:59.700Z,5.50
2022-09-27T20:03:27.849Z,5.50
2022-09-27T20:05:56.290Z,5.50
2022-09-27T20:08:25.499Z,5.60
2022-09-27T20:10:58.160Z,5.70
2022-09-27T20:13:27.896Z,5.80
2022-09-27T20:16:03.394Z,5.90
2022-09-27T20:18:31.661Z,5.90
2022-09-27T20:21:02.823Z,5.80
2022-09-27T20:23:31.224Z,5.80
2022-09-27T20:26:02.439Z,5.80
2022-09-27T20:28:30.637Z,5.80
2022-09-27T20:30:59.477Z,5.80
2022-09-27T20:33:46.590Z,5.70
2022-09-27T20:36:15.211Z,5.70
2022-09-27T20:38:44.010Z,5.80
2022-09-27T20:41:12.490Z,5.80
2022-09-27T20:43:40.485Z,5.80
2022-09-27T20:46:09.652Z,5.90
2022-09-27T20:48:40.233Z,5.90
2022-09-27T20:51:10.722Z,5.90
2022-09-27T20:53:38.911Z,6.00
2022-09-27T20:56:16.039Z,6.00
2022-09-27T20:58:44.218Z,6.10
2022-09-27T21:01:12.612Z,6.20
2022-09-27T21:03:42.242Z,6.30
2022-09-27T21:06:10.237Z,6.30
2022-09-27T21:08:38.511Z,6.40
2022-09-27T21:11:07.995Z,6.40
2022-09-27T21:13:36.526Z,6.40
2022-09-27T21:16:05.954Z,6.50
2022-09-27T21:18:37.367Z,6.50
2022-09-27T21:21:08.983Z,6.50
2022-09-27T21:23:41.992Z,6.50
2022-09-27T21:26:13.409Z,6.60
2022-09-27T21:28:42.547Z,6.60
2022-09-27T21:31:11.421Z,6.60
2022-09-27T21:33:39.804Z,6.60
2022-09-27T21:36:11.744Z,6.60
2022-09-27T21:38:40.080Z,6.60
2022-09-27T21:41:12.432Z,6.60
2022-09-27T21:43:41.066Z,6.60
2022-09-27T21:46:09.736Z,6.60
2022-09-27T21:48:38.564Z,6.50
2022-09-27T21:51:07.536Z,6.50
2022-09-27T21:53:37.401Z,6.50
2022-09-27T21:56:05.982Z,6.40
2022-09-27T21:58:34.780Z,6.30
2022-09-27T22:01:07.803Z,6.20
2022-09-27T22:03:39.599Z,6.20
2022-09-27T22:06:09.647Z,6.10
2022-09-27T22:08:39.476Z,6.00
2022-09-27T22:11:07.915Z,5.90
2022-09-27T22:13:35.921Z,5.90
2022-09-27T22:16:04.539Z,5.80
2022-09-27T22:18:34.845Z,5.70
2022-09-27T22:21:03.754Z,5.70
2022-09-27T22:23:31.862Z,5.60
2022-09-27T22:26:01.671Z,5.60
2022-09-27T22:28:29.798Z,5.70
2022-09-27T22:30:57.769Z,5.70
2022-09-27T22:33:25.889Z,5.80
2022-09-27T22:35:54.009Z,5.80
2022-09-27T22:38:22.000Z,5.90
2022-09-27T22:40:54.997Z,5.90
2022-09-27T22:43:24.804Z,6.00
2022-09-27T22:45:52.975Z,6.00
2022-09-27T22:48:20.909Z,5.90
2022-09-27T22:50:49.097Z,5.90
2022-09-27T22:53:17.075Z,5.90
2022-09-27T22:55:45.108Z,5.90
2022-09-27T22:58:13.227Z,5.90
2022-09-27T23:00:42.745Z,5.90
2022-09-27T23:03:10.956Z,5.90
2022-09-27T23:05:39.030Z,5.90
2022-09-27T23:08:07.159Z,5.80
2022-09-27T23:10:36.072Z,5.70
2022-09-27T23:13:03.963Z,5.70
2022-09-27T23:15:32.965Z,5.60
2022-09-27T23:18:02.424Z,5.50
2022-09-27T23:20:30.567Z,5.50
2022-09-27T23:22:59.139Z,5.50
2022-09-27T23:25:27.329Z,5.50
2022-09-27T23:27:55.587Z,5.40
2022-09-27T23:30:29.090Z,5.40
2022-09-27T23:32:57.069Z,5.40
2022-09-27T23:35:31.017Z,5.40
2022-09-27T23:37:59.033Z,5.40
2022-09-27T23:40:27.538Z,5.40
2022-09-27T23:42:55.581Z,5.40
2022-09-27T23:45:23.703Z,5.40
2022-09-27T23:47:52.971Z,5.40
2022-09-27T23:50:21.982Z,5.40
2022-09-27T23:52:51.296Z,5.40
2022-09-27T23:55:19.230Z,5.40
2022-09-27T23:57:47.176Z,5.40
